Time;durP1;ratioP1;P1;durP2;ratioP2;P2;SDS_P1;SDS_P2;PMS_P1;PMS_P2;Temp;Humidity;BMP_temperature;BMP_pressure;BME280_temperature;BME280_humidity;BME280_pressure;Samples;Min_cycle;Max_cycle;Signal;HPM_P1;HPM_P2
2022/01/30 00:00:24;;;;;;;;;10.00;6.50;;;;;;;;6299187;22;29665;-82
2022/01/30 00:02:51;;;;;;;;;5.25;5.00;;;;;;;;6328539;22;28634;-81
2022/01/30 00:05:17;;;;;;;;;5.50;5.50;;;;;;;;6327667;22;28452;-83
2022/01/30 00:07:42;;;;;;;;;9.25;5.50;;;;;;;;6329527;22;28563;-81
2022/01/30 00:10:11;;;;;;;;;5.00;5.00;;;;;;;;6329614;22;29209;-81
2022/01/30 00:12:45;;;;;;;;;4.25;4.00;;;;;;;;6329619;22;28222;-81
2022/01/30 00:15:11;;;;;;;;;4.50;4.50;;;;;;;;6301323;22;28298;-81
2022/01/30 00:17:43;;;;;;;;;4.50;3.00;;;;;;;;6301529;22;28504;-82
2022/01/30 00:20:15;;;;;;;;;3.75;3.25;;;;;;;;6325277;22;28454;-81
2022/01/30 00:23:28;;;;;;;;;10.25;6.00;;;;;;;;6327969;22;28600;-81
2022/01/30 00:25:43;;;;;;;;;5.75;4.25;;;;;;;;6304467;22;28398;-81
2022/01/30 00:28:11;;;;;;;;;6.75;6.75;;;;;;;;6328927;22;28422;-81
2022/01/30 00:30:36;;;;;;;;;9.25;5.00;;;;;;;;6300217;22;28347;-81
2022/01/30 00:33:02;;;;;;;;;6.33;3.33;;;;;;;;6328813;22;28384;-81
2022/01/30 00:35:27;;;;;;;;;8.00;5.00;;;;;;;;6327629;22;28449;-81
2022/01/30 00:37:54;;;;;;;;;5.00;4.75;;;;;;;;6329064;22;28474;-81
2022/01/30 00:40:19;;;;;;;;;10.75;4.50;;;;;;;;6329395;22;28274;-81
2022/01/30 00:42:44;;;;;;;;;6.00;5.00;;;;;;;;6330026;22;28962;-81
2022/01/30 00:45:09;;;;;;;;;4.00;4.00;;;;;;;;6328984;22;28659;-81
2022/01/30 00:47:35;;;;;;;;;10.50;5.00;;;;;;;;6300390;22;28204;-81
2022/01/30 00:50:00;;;;;;;;;7.75;5.00;;;;;;;;6300813;22;30745;-81
2022/01/30 00:52:25;;;;;;;;;6.00;6.00;;;;;;;;6328338;22;28274;-83
2022/01/30 00:54:50;;;;;;;;;5.67;4.67;;;;;;;;6330141;22;28171;-81
2022/01/30 00:57:15;;;;;;;;;6.00;5.67;;;;;;;;6328674;22;28338;-81
2022/01/30 00:59:41;;;;;;;;;6.33;5.33;;;;;;;;6329231;22;29191;-81
2022/01/30 01:02:06;;;;;;;;;4.33;4.00;;;;;;;;6329586;22;28236;-81
2022/01/30 01:04:31;;;;;;;;;6.00;4.33;;;;;;;;6331247;22;28243;-81
2022/01/30 01:06:56;;;;;;;;;4.25;4.00;;;;;;;;6334957;22;28246;-81
2022/01/30 01:09:28;;;;;;;;;5.00;5.00;;;;;;;;6335537;22;28363;-81
2022/01/30 01:25:14;;;;;;;;;7.00;3.25;;;;;;;;6330355;22;28433;-81
2022/01/30 01:27:39;;;;;;;;;4.50;4.50;;;;;;;;6329408;22;28305;-81
2022/01/30 01:30:05;;;;;;;;;8.25;3.75;;;;;;;;6330732;22;29311;-81
2022/01/30 01:32:30;;;;;;;;;5.50;4.25;;;;;;;;6330731;22;28328;-81
2022/01/30 01:34:55;;;;;;;;;6.33;6.33;;;;;;;;6330086;22;28361;-81
2022/01/30 01:37:21;;;;;;;;;2.00;0.00;;;;;;;;6330148;22;28443;-81
2022/01/30 01:39:46;;;;;;;;;7.50;5.25;;;;;;;;6330011;22;28320;-81
2022/01/30 01:42:14;;;;;;;;;14.00;7.75;;;;;;;;6331150;22;28274;-81
2022/01/30 01:44:43;;;;;;;;;6.25;6.25;;;;;;;;6330783;22;28437;-81
2022/01/30 01:47:09;;;;;;;;;6.25;5.00;;;;;;;;6301508;22;28693;-81
2022/01/30 01:49:35;;;;;;;;;10.25;7.50;;;;;;;;6328699;22;28299;-81
2022/01/30 01:52:18;;;;;;;;;8.00;5.50;;;;;;;;6301569;22;28349;-81
2022/01/30 01:54:54;;;;;;;;;9.50;7.50;;;;;;;;6302448;22;28211;-81
2022/01/30 01:57:20;;;;;;;;;5.00;5.00;;;;;;;;6330906;22;28295;-81
2022/01/30 01:59:46;;;;;;;;;8.00;5.75;;;;;;;;6301369;22;30905;-81
2022/01/30 02:02:11;;;;;;;;;7.50;4.25;;;;;;;;6330953;22;28353;-81
2022/01/30 02:04:38;;;;;;;;;9.00;6.50;;;;;;;;6330201;22;28618;-81
2022/01/30 02:07:33;;;;;;;;;12.25;5.75;;;;;;;;6302491;22;28617;-81
2022/01/30 02:09:49;;;;;;;;;9.50;8.00;;;;;;;;6329486;22;28384;-81
2022/01/30 02:12:20;;;;;;;;;9.75;7.75;;;;;;;;6330693;22;28188;-81
2022/01/30 02:25:58;;;;;;;;;10.00;5.00;;;;;;;;6328549;22;28369;-81
2022/01/30 02:28:25;;;;;;;;;9.75;5.50;;;;;;;;6329740;22;28302;-81
2022/01/30 02:31:04;;;;;;;;;7.50;7.00;;;;;;;;6302174;22;30083;-81
2022/01/30 02:33:29;;;;;;;;;9.00;7.00;;;;;;;;6330381;22;28409;-81
2022/01/30 02:35:55;;;;;;;;;10.50;8.00;;;;;;;;6302037;22;28339;-81
2022/01/30 02:38:23;;;;;;;;;8.25;8.00;;;;;;;;6330478;22;28341;-81
2022/01/30 02:40:51;;;;;;;;;10.75;7.75;;;;;;;;6329560;22;28486;-81
2022/01/30 02:43:20;;;;;;;;;9.25;7.75;;;;;;;;6330539;22;28246;-81
2022/01/30 02:45:58;;;;;;;;;10.00;6.25;;;;;;;;6329508;22;28279;-81
2022/01/30 02:48:31;;;;;;;;;9.75;6.50;;;;;;;;6328318;22;28658;-81
2022/01/30 02:51:08;;;;;;;;;14.50;10.25;;;;;;;;6329294;22;28423;-81
2022/01/30 02:53:39;;;;;;;;;10.75;9.25;;;;;;;;6302362;22;28354;-81
2022/01/30 02:56:04;;;;;;;;;12.00;9.25;;;;;;;;6330790;22;28430;-81
2022/01/30 02:58:29;;;;;;;;;9.33;9.33;;;;;;;;6301947;22;28493;-81
2022/01/30 03:00:55;;;;;;;;;9.67;8.00;;;;;;;;6330659;22;28380;-81
2022/01/30 03:03:20;;;;;;;;;11.25;7.75;;;;;;;;6330260;22;28267;-81
2022/01/30 03:05:45;;;;;;;;;14.33;10.67;;;;;;;;6329636;22;28335;-81
2022/01/30 03:08:10;;;;;;;;;12.00;8.67;;;;;;;;6329258;22;28405;-81
2022/01/30 03:10:36;;;;;;;;;12.00;8.00;;;;;;;;6329490;22;28362;-81
2022/01/30 03:13:01;;;;;;;;;12.75;10.00;;;;;;;;6330353;22;28322;-81
2022/01/30 03:15:26;;;;;;;;;11.00;9.75;;;;;;;;6330045;22;28343;-81
2022/01/30 03:17:51;;;;;;;;;11.33;8.33;;;;;;;;6329952;22;28333;-81
2022/01/30 03:20:17;;;;;;;;;9.00;6.67;;;;;;;;6329603;22;29414;-81
2022/01/30 03:22:42;;;;;;;;;12.50;9.75;;;;;;;;6330058;22;28322;-82
2022/01/30 03:25:07;;;;;;;;;11.00;5.00;;;;;;;;6330278;22;28436;-81
2022/01/30 03:27:32;;;;;;;;;10.75;8.00;;;;;;;;6301326;22;28350;-81
2022/01/30 03:30:06;;;;;;;;;11.00;10.00;;;;;;;;6330113;22;28380;-81
2022/01/30 03:32:32;;;;;;;;;12.00;8.25;;;;;;;;6329002;22;28346;-81
2022/01/30 03:34:57;;;;;;;;;11.75;10.00;;;;;;;;6329534;22;28303;-81
2022/01/30 03:37:22;;;;;;;;;12.00;8.75;;;;;;;;6329507;22;28501;-82
2022/01/30 03:39:48;;;;;;;;;12.33;9.33;;;;;;;;6329296;22;29348;-81
2022/01/30 03:42:13;;;;;;;;;10.67;7.33;;;;;;;;6329946;22;28366;-81
2022/01/30 03:44:38;;;;;;;;;11.67;6.00;;;;;;;;6330231;22;28380;-81
2022/01/30 03:47:03;;;;;;;;;6.67;5.00;;;;;;;;6300814;22;28269;-81
2022/01/30 03:49:29;;;;;;;;;11.50;5.75;;;;;;;;6328209;22;29392;-81
2022/01/30 03:51:54;;;;;;;;;10.25;6.25;;;;;;;;6330159;22;28289;-81
2022/01/30 03:54:19;;;;;;;;;5.00;4.25;;;;;;;;6329369;22;28382;-81
2022/01/30 03:56:44;;;;;;;;;8.33;6.00;;;;;;;;6330284;22;28196;-81
2022/01/30 03:59:10;;;;;;;;;6.67;5.00;;;;;;;;6300840;22;29451;-81
2022/01/30 04:01:35;;;;;;;;;8.33;4.00;;;;;;;;6329002;22;28255;-81
2022/01/30 04:04:00;;;;;;;;;8.25;5.00;;;;;;;;6329900;22;28263;-81
2022/01/30 04:06:26;;;;;;;;;9.00;4.00;;;;;;;;6301350;22;28483;-81
2022/01/30 04:08:51;;;;;;;;;4.00;3.50;;;;;;;;6329614;22;29090;-81
2022/01/30 04:11:17;;;;;;;;;5.25;3.00;;;;;;;;6300631;22;28274;-81
2022/01/30 04:13:42;;;;;;;;;2.25;1.75;;;;;;;;6328978;22;28171;-81
2022/01/30 04:16:07;;;;;;;;;4.75;3.00;;;;;;;;6328925;22;28215;-81
2022/01/30 04:18:33;;;;;;;;;4.50;2.25;;;;;;;;6329210;22;28440;-81
2022/01/30 04:20:58;;;;;;;;;2.75;2.50;;;;;;;;6329272;22;28272;-81
2022/01/30 04:23:23;;;;;;;;;8.00;2.00;;;;;;;;6330056;22;28191;-81
2022/01/30 04:25:50;;;;;;;;;8.67;2.67;;;;;;;;6329651;22;28184;-81
2022/01/30 04:28:15;;;;;;;;;2.50;2.00;;;;;;;;6329528;22;29041;-81
2022/01/30 04:30:40;;;;;;;;;8.50;3.25;;;;;;;;6329489;22;28399;-81
2022/01/30 04:33:06;;;;;;;;;6.25;2.75;;;;;;;;6302351;22;28473;-81
2022/01/30 04:35:31;;;;;;;;;4.00;1.50;;;;;;;;6329591;22;28321;-81
2022/01/30 05:04:55;;;;;;;;;2.00;2.00;;;;;;;;6329205;22;28541;-81
2022/01/30 05:09:45;;;;;;;;;2.25;2.00;;;;;;;;6325907;22;29152;-81
2022/01/30 05:12:12;;;;;;;;;4.00;2.00;;;;;;;;6329443;22;28296;-81
2022/01/30 05:14:37;;;;;;;;;4.25;2.00;;;;;;;;6329914;22;28436;-81
2022/01/30 05:17:04;;;;;;;;;1.25;0.50;;;;;;;;6328574;22;28354;-81
2022/01/30 05:19:30;;;;;;;;;3.00;1.00;;;;;;;;6327333;22;29161;-82
2022/01/30 05:21:55;;;;;;;;;7.25;2.00;;;;;;;;6328436;22;28288;-81
2022/01/30 05:24:21;;;;;;;;;4.00;2.00;;;;;;;;6301397;22;28189;-81
2022/01/30 05:26:46;;;;;;;;;1.00;1.00;;;;;;;;6328617;22;28488;-81
2022/01/30 05:29:12;;;;;;;;;3.00;0.75;;;;;;;;6328546;22;30218;-81
2022/01/30 05:31:38;;;;;;;;;3.50;1.50;;;;;;;;6328513;22;28251;-81
2022/01/30 05:34:03;;;;;;;;;2.75;1.00;;;;;;;;6300330;22;28399;-81
2022/01/30 05:36:30;;;;;;;;;6.00;2.00;;;;;;;;6328958;22;28247;-81
2022/01/30 05:38:55;;;;;;;;;3.00;2.00;;;;;;;;6327810;22;29839;-81
2022/01/30 05:41:21;;;;;;;;;2.50;0.75;;;;;;;;6300745;22;30404;-81
2022/01/30 05:43:50;;;;;;;;;2.25;2.00;;;;;;;;6328032;22;28334;-81
2022/01/30 05:46:28;;;;;;;;;5.50;1.50;;;;;;;;6327751;22;28426;-81
2022/01/30 05:48:53;;;;;;;;;6.00;3.25;;;;;;;;6328557;22;28390;-81
2022/01/30 05:51:18;;;;;;;;;1.75;1.00;;;;;;;;6328563;22;28271;-81
2022/01/30 05:53:44;;;;;;;;;2.00;1.25;;;;;;;;6328548;22;28267;-81
2022/01/30 05:56:11;;;;;;;;;6.33;2.33;;;;;;;;6330197;22;28193;-81
2022/01/30 05:58:36;;;;;;;;;1.25;1.25;;;;;;;;6302219;22;29790;-81
2022/01/30 06:01:01;;;;;;;;;4.00;2.00;;;;;;;;6302489;22;28575;-81
2022/01/30 06:03:29;;;;;;;;;5.67;2.00;;;;;;;;6329298;22;28547;-81
2022/01/30 06:05:54;;;;;;;;;1.75;1.00;;;;;;;;6329058;22;28267;-81
2022/01/30 06:08:39;;;;;;;;;4.67;3.00;;;;;;;;6301145;22;28330;-81
2022/01/30 06:11:05;;;;;;;;;3.75;2.00;;;;;;;;6330192;22;28383;-81
2022/01/30 06:13:30;;;;;;;;;4.75;1.00;;;;;;;;6330233;22;28220;-81
2022/01/30 06:15:55;;;;;;;;;3.25;2.50;;;;;;;;6330630;22;28188;-81
2022/01/30 06:18:22;;;;;;;;;8.50;2.00;;;;;;;;6328687;22;28349;-81
2022/01/30 06:20:47;;;;;;;;;4.00;2.00;;;;;;;;6302639;22;28237;-81
2022/01/30 06:23:12;;;;;;;;;4.00;1.00;;;;;;;;6329443;22;28227;-81
2022/01/30 06:25:37;;;;;;;;;5.00;2.00;;;;;;;;6330201;22;28176;-81
2022/01/30 06:28:03;;;;;;;;;6.33;2.00;;;;;;;;6329081;22;28185;-81
2022/01/30 06:30:28;;;;;;;;;5.75;2.00;;;;;;;;6330535;22;28176;-80
2022/01/30 06:32:53;;;;;;;;;1.50;1.00;;;;;;;;6301317;22;28236;-80
2022/01/30 06:35:18;;;;;;;;;9.25;1.25;;;;;;;;6330307;22;28508;-80
2022/01/30 06:37:44;;;;;;;;;7.33;2.33;;;;;;;;6328887;22;29465;-79
2022/01/30 06:40:09;;;;;;;;;4.50;2.25;;;;;;;;6330592;22;28241;-80
2022/01/30 06:42:35;;;;;;;;;8.50;2.00;;;;;;;;6330442;22;28222;-80
2022/01/30 06:45:00;;;;;;;;;7.75;4.00;;;;;;;;6330010;22;28360;-80
2022/01/30 06:47:25;;;;;;;;;8.00;3.00;;;;;;;;6329264;22;28341;-80
2022/01/30 06:49:50;;;;;;;;;8.00;4.00;;;;;;;;6301837;22;28983;-80
2022/01/30 06:52:16;;;;;;;;;4.75;3.00;;;;;;;;6329753;22;28387;-80
2022/01/30 06:54:42;;;;;;;;;2.25;1.75;;;;;;;;6330390;22;28552;-80
2022/01/30 06:57:07;;;;;;;;;4.75;2.00;;;;;;;;6329736;22;28967;-80
2022/01/30 06:59:32;;;;;;;;;7.75;3.00;;;;;;;;6329857;22;28370;-80
2022/01/30 07:01:58;;;;;;;;;2.25;2.00;;;;;;;;6330352;22;28301;-80
2022/01/30 07:04:23;;;;;;;;;9.75;3.25;;;;;;;;6328889;22;28315;-80
2022/01/30 07:06:48;;;;;;;;;3.00;1.00;;;;;;;;6300448;22;28636;-80
2022/01/30 07:09:13;;;;;;;;;3.00;3.00;;;;;;;;6301269;22;28564;-80
2022/01/30 07:11:39;;;;;;;;;2.33;2.00;;;;;;;;6330149;22;28276;-80
2022/01/30 07:14:04;;;;;;;;;4.67;2.00;;;;;;;;6301459;22;28356;-80
2022/01/30 07:16:29;;;;;;;;;4.25;3.00;;;;;;;;6330240;22;29199;-80
2022/01/30 07:18:54;;;;;;;;;4.25;2.00;;;;;;;;6301259;22;28615;-80
2022/01/30 07:21:20;;;;;;;;;2.00;2.00;;;;;;;;6302282;22;28583;-80
2022/01/30 07:23:45;;;;;;;;;3.00;2.00;;;;;;;;6328912;22;28467;-80
2022/01/30 07:26:10;;;;;;;;;5.00;2.50;;;;;;;;6328767;22;28132;-80
2022/01/30 07:28:35;;;;;;;;;7.25;3.00;;;;;;;;6329113;22;28257;-80
2022/01/30 07:31:01;;;;;;;;;3.33;2.00;;;;;;;;6330353;22;28181;-81
2022/01/30 07:33:26;;;;;;;;;5.50;2.75;;;;;;;;6328408;22;28268;-80
2022/01/30 07:35:53;;;;;;;;;8.00;2.00;;;;;;;;6330606;22;29372;-80
2022/01/30 07:38:20;;;;;;;;;4.25;2.50;;;;;;;;6329667;22;28333;-80
2022/01/30 07:40:46;;;;;;;;;2.00;2.00;;;;;;;;6330335;22;28373;-80
2022/01/30 07:43:11;;;;;;;;;6.25;3.00;;;;;;;;6329019;22;28341;-80
2022/01/30 07:45:36;;;;;;;;;1.00;1.00;;;;;;;;6329092;22;29261;-80
2022/01/30 07:48:02;;;;;;;;;5.00;2.33;;;;;;;;6328219;22;28357;-80
2022/01/30 07:50:27;;;;;;;;;2.00;2.00;;;;;;;;6330407;22;28279;-80
2022/01/30 07:52:53;;;;;;;;;8.00;3.00;;;;;;;;6329167;22;28362;-80
2022/01/30 07:55:19;;;;;;;;;5.25;2.25;;;;;;;;6302039;22;30085;-80
2022/01/30 07:57:44;;;;;;;;;4.00;2.50;;;;;;;;6329082;22;28200;-80
2022/01/30 08:00:10;;;;;;;;;3.00;3.00;;;;;;;;6329660;22;28248;-80
2022/01/30 08:02:35;;;;;;;;;7.25;2.50;;;;;;;;6328948;22;28233;-80
2022/01/30 08:05:01;;;;;;;;;2.00;2.00;;;;;;;;6300361;22;30544;-80
2022/01/30 08:07:27;;;;;;;;;3.33;2.33;;;;;;;;6329428;22;28247;-78
2022/01/30 08:09:52;;;;;;;;;6.75;2.25;;;;;;;;6328748;22;28184;-79
2022/01/30 08:12:19;;;;;;;;;3.75;2.50;;;;;;;;6301877;22;28777;-79
2022/01/30 08:14:45;;;;;;;;;5.00;2.00;;;;;;;;6301249;22;31200;-80
2022/01/30 08:17:10;;;;;;;;;6.75;3.00;;;;;;;;6327596;22;28495;-81
2022/01/30 08:19:36;;;;;;;;;5.50;3.00;;;;;;;;6299794;22;28413;-81
2022/01/30 08:22:02;;;;;;;;;2.33;2.00;;;;;;;;6301230;22;28542;-81
2022/01/30 08:24:28;;;;;;;;;9.00;2.25;;;;;;;;6330021;22;28440;-81
2022/01/30 08:26:53;;;;;;;;;4.00;2.00;;;;;;;;6328375;22;28495;-81
2022/01/30 08:29:18;;;;;;;;;5.00;2.67;;;;;;;;6327796;22;28259;-81
2022/01/30 08:31:43;;;;;;;;;6.25;2.50;;;;;;;;6301154;22;29264;-81
2022/01/30 08:34:09;;;;;;;;;5.67;3.00;;;;;;;;6299581;22;30938;-81
2022/01/30 08:36:34;;;;;;;;;7.00;2.25;;;;;;;;6301545;22;28349;-81
2022/01/30 08:38:59;;;;;;;;;8.50;3.00;;;;;;;;6328562;22;28270;-82
2022/01/30 08:41:25;;;;;;;;;4.33;2.67;;;;;;;;6329481;22;28324;-82
2022/01/30 08:43:50;;;;;;;;;8.00;3.75;;;;;;;;6300323;22;30289;-81
2022/01/30 08:46:15;;;;;;;;;2.67;2.00;;;;;;;;6329420;22;28232;-81
2022/01/30 08:48:41;;;;;;;;;9.25;2.00;;;;;;;;6328541;22;28242;-81
2022/01/30 08:51:06;;;;;;;;;5.75;2.00;;;;;;;;6328378;22;28229;-81
2022/01/30 08:53:31;;;;;;;;;4.00;4.00;;;;;;;;6305506;22;28362;-81
2022/01/30 08:55:56;;;;;;;;;6.67;5.00;;;;;;;;6329694;22;28248;-79
2022/01/30 08:58:22;;;;;;;;;6.25;3.25;;;;;;;;6300329;22;28304;-81
2022/01/30 09:00:47;;;;;;;;;5.67;2.67;;;;;;;;6329874;22;28397;-81
2022/01/30 09:03:12;;;;;;;;;4.00;2.50;;;;;;;;6328798;22;28342;-81
2022/01/30 09:05:38;;;;;;;;;9.00;2.25;;;;;;;;6329781;22;28296;-78
2022/01/30 09:08:04;;;;;;;;;9.25;5.00;;;;;;;;6331250;22;28356;-82
2022/01/30 09:10:30;;;;;;;;;6.00;3.50;;;;;;;;6334316;22;28751;-82
2022/01/30 09:12:56;;;;;;;;;4.00;2.00;;;;;;;;6310567;22;29882;-82
2022/01/30 09:15:21;;;;;;;;;5.00;3.00;;;;;;;;6338824;22;28297;-82
2022/01/30 09:17:46;;;;;;;;;9.00;4.00;;;;;;;;6339497;22;28166;-80
2022/01/30 09:20:12;;;;;;;;;8.50;4.00;;;;;;;;6338260;22;28404;-79
2022/01/30 09:22:38;;;;;;;;;10.50;5.50;;;;;;;;6335633;22;28199;-79
2022/01/30 09:25:06;;;;;;;;;5.00;2.00;;;;;;;;6330508;22;28734;-81
2022/01/30 09:27:32;;;;;;;;;6.25;3.25;;;;;;;;6300278;22;28462;-80
2022/01/30 09:29:58;;;;;;;;;3.50;3.00;;;;;;;;6301509;22;28217;-80
2022/01/30 09:32:23;;;;;;;;;3.00;3.00;;;;;;;;6333024;22;28265;-81
2022/01/30 09:34:49;;;;;;;;;5.50;3.00;;;;;;;;6334405;22;28355;-80
2022/01/30 09:37:14;;;;;;;;;7.50;4.00;;;;;;;;6330030;22;28179;-81
2022/01/30 09:39:39;;;;;;;;;6.00;2.00;;;;;;;;6330166;22;28255;-81
2022/01/30 09:42:06;;;;;;;;;3.75;2.50;;;;;;;;6330627;22;28243;-81
2022/01/30 09:44:34;;;;;;;;;4.00;3.00;;;;;;;;6330478;22;28660;-81
2022/01/30 09:46:59;;;;;;;;;3.25;3.25;;;;;;;;6329935;22;28796;-81
2022/01/30 09:49:26;;;;;;;;;5.75;3.25;;;;;;;;6329260;22;28399;-82
2022/01/30 09:51:53;;;;;;;;;4.00;2.50;;;;;;;;6330621;22;29021;-82
2022/01/30 09:54:18;;;;;;;;;5.00;3.25;;;;;;;;6330460;22;28326;-82
2022/01/30 09:56:44;;;;;;;;;7.50;3.75;;;;;;;;6302580;22;28173;-82
2022/01/30 09:59:09;;;;;;;;;8.33;3.33;;;;;;;;6302512;22;28541;-82
2022/01/30 10:01:35;;;;;;;;;13.67;5.67;;;;;;;;6330375;22;28439;-82
2022/01/30 10:04:01;;;;;;;;;6.50;4.75;;;;;;;;6329996;22;28407;-82
2022/01/30 10:06:33;;;;;;;;;7.25;5.00;;;;;;;;6301668;22;28471;-82
2022/01/30 10:09:05;;;;;;;;;9.25;3.75;;;;;;;;6329702;22;28353;-82
2022/01/30 10:11:46;;;;;;;;;6.00;4.00;;;;;;;;6330310;22;28303;-83
2022/01/30 10:14:14;;;;;;;;;11.25;6.25;;;;;;;;6301931;22;28374;-82
2022/01/30 10:16:49;;;;;;;;;9.50;4.00;;;;;;;;6330362;22;28277;-82
2022/01/30 10:19:20;;;;;;;;;8.75;6.50;;;;;;;;6330170;22;28823;-82
2022/01/30 10:21:48;;;;;;;;;8.00;6.25;;;;;;;;6330560;22;28593;-82
2022/01/30 10:24:21;;;;;;;;;6.00;3.75;;;;;;;;6302228;22;28487;-82
2022/01/30 10:26:46;;;;;;;;;9.25;6.00;;;;;;;;6330524;22;28337;-81
2022/01/30 10:29:22;;;;;;;;;15.50;13.50;;;;;;;;6330172;22;28336;-82
2022/01/30 10:31:56;;;;;;;;;7.50;4.75;;;;;;;;6330137;22;29193;-82
2022/01/30 10:34:21;;;;;;;;;7.75;3.75;;;;;;;;6330784;22;28436;-83
2022/01/30 10:36:47;;;;;;;;;7.00;4.00;;;;;;;;6330538;22;28563;-82
2022/01/30 10:39:16;;;;;;;;;8.75;4.75;;;;;;;;6329714;22;28257;-82
2022/01/30 10:41:45;;;;;;;;;8.00;4.00;;;;;;;;6329909;22;28184;-82
2022/01/30 10:44:10;;;;;;;;;4.75;3.00;;;;;;;;6329690;22;28504;-82
2022/01/30 10:46:40;;;;;;;;;8.00;6.00;;;;;;;;6330775;22;28577;-82
2022/01/30 10:49:11;;;;;;;;;5.00;3.25;;;;;;;;6329900;22;28333;-84
2022/01/30 10:51:37;;;;;;;;;4.00;3.00;;;;;;;;6302477;22;30806;-80
2022/01/30 10:54:07;;;;;;;;;7.00;7.00;;;;;;;;6301647;22;28372;-82
2022/01/30 10:56:33;;;;;;;;;6.50;6.25;;;;;;;;6330371;22;28279;-81
2022/01/30 10:59:05;;;;;;;;;8.50;6.25;;;;;;;;6330113;22;28184;-82
2022/01/30 11:01:31;;;;;;;;;6.00;4.00;;;;;;;;6302302;22;29607;-83
2022/01/30 11:04:00;;;;;;;;;7.75;4.75;;;;;;;;6330660;22;28221;-83
2022/01/30 11:06:29;;;;;;;;;8.75;6.25;;;;;;;;6330057;22;28459;-81
2022/01/30 11:09:04;;;;;;;;;6.00;3.75;;;;;;;;6330237;22;28394;-81
2022/01/30 11:11:38;;;;;;;;;5.50;3.00;;;;;;;;6329744;22;29154;-82
2022/01/30 11:19:17;;;;;;;;;8.75;7.25;;;;;;;;6329807;22;28315;-80
2022/01/30 11:21:44;;;;;;;;;11.25;4.00;;;;;;;;6330555;22;28340;-80
2022/01/30 11:24:12;;;;;;;;;14.00;6.25;;;;;;;;6330483;22;28315;-80
2022/01/30 11:26:38;;;;;;;;;9.25;5.50;;;;;;;;6330519;22;28471;-80
2022/01/30 11:29:06;;;;;;;;;8.00;4.75;;;;;;;;6301924;22;29791;-80
2022/01/30 11:31:31;;;;;;;;;10.25;5.25;;;;;;;;6329832;22;29230;-81
2022/01/30 11:33:58;;;;;;;;;6.50;4.00;;;;;;;;6330119;22;28266;-81
2022/01/30 11:36:23;;;;;;;;;7.75;5.00;;;;;;;;6330480;22;28263;-81
2022/01/30 11:38:49;;;;;;;;;9.00;4.75;;;;;;;;6301531;22;28649;-81
2022/01/30 11:41:17;;;;;;;;;12.75;8.00;;;;;;;;6330381;22;28336;-81
2022/01/30 11:44:08;;;;;;;;;12.25;6.50;;;;;;;;6330463;22;28262;-81
2022/01/30 11:46:34;;;;;;;;;12.25;10.25;;;;;;;;6329559;22;28306;-81
2022/01/30 11:49:17;;;;;;;;;13.67;7.67;;;;;;;;6328754;22;28215;-81
2022/01/30 11:51:49;;;;;;;;;8.75;8.25;;;;;;;;6330193;22;28298;-81
2022/01/30 11:54:35;;;;;;;;;9.75;7.25;;;;;;;;6329974;22;28547;-81
2022/01/30 11:57:00;;;;;;;;;8.25;6.00;;;;;;;;6301758;22;28278;-81
2022/01/30 11:59:44;;;;;;;;;10.00;8.00;;;;;;;;6330041;22;28335;-81
2022/01/30 12:02:28;;;;;;;;;10.00;8.00;;;;;;;;6330185;22;29280;-81
2022/01/30 12:04:54;;;;;;;;;12.75;9.25;;;;;;;;6330168;22;28476;-81
2022/01/30 12:07:36;;;;;;;;;10.25;9.00;;;;;;;;6330063;22;28443;-81
2022/01/30 12:10:16;;;;;;;;;8.25;5.00;;;;;;;;6329630;22;28473;-81
2022/01/30 12:12:48;;;;;;;;;14.25;8.00;;;;;;;;6329877;22;28351;-81
2022/01/30 12:15:32;;;;;;;;;10.50;7.25;;;;;;;;6330327;22;28338;-81
2022/01/30 12:17:58;;;;;;;;;11.75;7.75;;;;;;;;6301543;22;28295;-81
2022/01/30 12:20:23;;;;;;;;;10.50;8.00;;;;;;;;6329322;22;28540;-81
2022/01/30 12:22:49;;;;;;;;;9.00;7.50;;;;;;;;6330312;22;29163;-81
2022/01/30 12:25:22;;;;;;;;;15.00;6.00;;;;;;;;6330033;22;28327;-81
2022/01/30 12:27:53;;;;;;;;;11.25;7.00;;;;;;;;6329664;22;28474;-81
2022/01/30 12:30:30;;;;;;;;;8.00;7.50;;;;;;;;6329684;22;28421;-81
2022/01/30 12:32:56;;;;;;;;;8.25;7.50;;;;;;;;6329460;22;28484;-81
2022/01/30 12:35:21;;;;;;;;;10.00;5.50;;;;;;;;6301574;22;28369;-81
2022/01/30 12:37:46;;;;;;;;;16.00;8.00;;;;;;;;6329606;22;28494;-81
2022/01/30 12:40:19;;;;;;;;;8.25;5.75;;;;;;;;6329784;22;28428;-81
2022/01/30 12:42:45;;;;;;;;;14.00;6.75;;;;;;;;6329751;22;28265;-81
2022/01/30 12:45:14;;;;;;;;;10.75;6.50;;;;;;;;6301815;22;28513;-81
2022/01/30 12:47:49;;;;;;;;;10.00;8.00;;;;;;;;6328892;22;28382;-81
2022/01/30 12:50:16;;;;;;;;;11.00;8.00;;;;;;;;6329566;22;28378;-81
2022/01/30 12:52:46;;;;;;;;;9.00;9.00;;;;;;;;6329863;22;28267;-81
2022/01/30 12:55:12;;;;;;;;;10.00;8.25;;;;;;;;6330024;22;28440;-81
2022/01/30 12:57:40;;;;;;;;;11.25;7.25;;;;;;;;6329720;22;28281;-81
2022/01/30 13:00:07;;;;;;;;;14.75;10.50;;;;;;;;6329565;22;28539;-81
2022/01/30 13:02:38;;;;;;;;;7.50;6.50;;;;;;;;6329204;22;29198;-81
2022/01/30 13:05:05;;;;;;;;;7.75;5.00;;;;;;;;6301879;22;28614;-81
2022/01/30 13:07:31;;;;;;;;;12.00;10.00;;;;;;;;6330603;22;28179;-81
2022/01/30 13:10:11;;;;;;;;;14.75;7.25;;;;;;;;6330757;22;28322;-81
2022/01/30 13:12:36;;;;;;;;;9.50;8.00;;;;;;;;6330652;22;28479;-81
2022/01/30 13:15:08;;;;;;;;;8.00;6.50;;;;;;;;6331406;22;28253;-82
2022/01/30 13:17:33;;;;;;;;;12.75;8.50;;;;;;;;6330076;22;28310;-81
2022/01/30 13:19:59;;;;;;;;;10.50;6.75;;;;;;;;6302657;22;28813;-81
2022/01/30 13:22:28;;;;;;;;;10.25;7.00;;;;;;;;6330992;22;28329;-81
2022/01/30 13:24:54;;;;;;;;;11.00;6.00;;;;;;;;6330833;22;28322;-81
2022/01/30 13:27:19;;;;;;;;;11.00;7.50;;;;;;;;6330801;22;28409;-81
2022/01/30 13:29:45;;;;;;;;;11.00;8.75;;;;;;;;6331209;22;28393;-81
2022/01/30 13:32:11;;;;;;;;;11.00;7.00;;;;;;;;6302546;22;30000;-81
2022/01/30 13:34:37;;;;;;;;;7.25;7.00;;;;;;;;6330377;22;28272;-81
2022/01/30 13:37:04;;;;;;;;;13.25;8.75;;;;;;;;6330965;22;28247;-81
2022/01/30 13:39:44;;;;;;;;;8.50;7.00;;;;;;;;6328971;22;28237;-81
2022/01/30 13:48:01;;;;;;;;;13.50;8.50;;;;;;;;6279592;22;28181;-81
2022/01/30 13:50:32;;;;;;;;;10.75;8.00;;;;;;;;6329188;22;28449;-81
2022/01/30 13:53:01;;;;;;;;;14.00;10.00;;;;;;;;6329122;22;28437;-81
2022/01/30 13:55:27;;;;;;;;;11.75;9.00;;;;;;;;6301362;22;28444;-81
2022/01/30 13:57:56;;;;;;;;;10.50;8.25;;;;;;;;6300997;22;28306;-81
2022/01/30 14:00:22;;;;;;;;;11.00;7.75;;;;;;;;6328735;22;28563;-81
2022/01/30 14:02:51;;;;;;;;;13.75;9.00;;;;;;;;6328648;22;28439;-81
2022/01/30 14:05:24;;;;;;;;;9.25;8.75;;;;;;;;6329226;22;28239;-81
2022/01/30 14:07:50;;;;;;;;;10.50;6.50;;;;;;;;6328879;22;28276;-81
2022/01/30 14:10:15;;;;;;;;;13.75;11.00;;;;;;;;6301551;22;28349;-81
2022/01/30 14:12:40;;;;;;;;;13.75;8.25;;;;;;;;6300539;22;29615;-81
2022/01/30 14:15:11;;;;;;;;;9.00;6.67;;;;;;;;6329237;22;28285;-81
2022/01/30 14:17:41;;;;;;;;;11.25;8.00;;;;;;;;6299857;22;28337;-81
2022/01/30 14:20:08;;;;;;;;;11.75;7.00;;;;;;;;6329116;22;28181;-81
2022/01/30 14:22:35;;;;;;;;;9.75;7.50;;;;;;;;6328646;22;28247;-82
2022/01/30 14:25:03;;;;;;;;;9.25;8.00;;;;;;;;6300866;22;28188;-81
2022/01/30 14:27:33;;;;;;;;;11.75;7.00;;;;;;;;6328763;22;28330;-81
2022/01/30 14:30:02;;;;;;;;;7.50;6.75;;;;;;;;6328913;22;28185;-81
2022/01/30 14:32:34;;;;;;;;;4.50;4.50;;;;;;;;6328008;22;28587;-81
2022/01/30 14:35:00;;;;;;;;;8.25;6.00;;;;;;;;6328792;22;28260;-81
2022/01/30 14:37:25;;;;;;;;;7.50;6.50;;;;;;;;6329025;22;28339;-81
2022/01/30 14:39:55;;;;;;;;;8.33;5.00;;;;;;;;6280499;22;1125279;-81
2022/01/30 14:42:20;;;;;;;;;6.50;5.25;;;;;;;;6302438;22;30292;-81
2022/01/30 14:44:46;;;;;;;;;7.00;6.25;;;;;;;;6329554;22;28287;-83
2022/01/30 14:47:12;;;;;;;;;8.00;7.25;;;;;;;;6330018;22;28187;-82
2022/01/30 14:49:37;;;;;;;;;8.75;5.75;;;;;;;;6329350;22;28365;-82
2022/01/30 14:52:03;;;;;;;;;7.75;6.75;;;;;;;;6330206;22;28406;-82
2022/01/30 14:54:28;;;;;;;;;11.00;6.50;;;;;;;;6301158;22;28542;-82
2022/01/30 14:56:54;;;;;;;;;10.00;6.33;;;;;;;;6329966;22;28388;-82
2022/01/30 14:59:19;;;;;;;;;10.00;7.25;;;;;;;;6329465;22;28452;-82
2022/01/30 15:01:45;;;;;;;;;9.75;6.00;;;;;;;;6301748;22;30918;-82
2022/01/30 15:04:10;;;;;;;;;9.50;6.75;;;;;;;;6327972;22;28404;-81
2022/01/30 15:06:36;;;;;;;;;7.50;7.50;;;;;;;;6329168;22;28499;-82
2022/01/30 15:09:02;;;;;;;;;9.00;5.25;;;;;;;;6328858;22;28480;-82
2022/01/30 15:11:27;;;;;;;;;6.50;6.25;;;;;;;;6327109;22;30241;-81
2022/01/30 15:13:53;;;;;;;;;10.67;8.00;;;;;;;;6327806;22;28444;-82
2022/01/30 15:16:29;;;;;;;;;8.33;5.00;;;;;;;;6299808;22;28422;-81
2022/01/30 15:18:54;;;;;;;;;11.50;5.50;;;;;;;;6326873;22;28393;-81
2022/01/30 15:21:20;;;;;;;;;12.75;5.25;;;;;;;;6327512;22;28448;-81
2022/01/30 15:23:45;;;;;;;;;12.00;7.25;;;;;;;;6327712;22;28397;-81
2022/01/30 15:26:10;;;;;;;;;8.75;6.50;;;;;;;;6327385;22;28508;-81
2022/01/30 15:28:36;;;;;;;;;12.00;7.25;;;;;;;;6327481;22;28393;-81
2022/01/30 15:31:01;;;;;;;;;6.50;5.00;;;;;;;;6301240;22;31361;-81
2022/01/30 15:33:26;;;;;;;;;7.50;5.00;;;;;;;;6329444;22;28695;-81
2022/01/30 15:35:52;;;;;;;;;10.00;6.25;;;;;;;;6333186;22;28340;-81
2022/01/30 15:38:18;;;;;;;;;8.00;6.00;;;;;;;;6331818;22;28334;-81
2022/01/30 15:40:44;;;;;;;;;8.00;5.00;;;;;;;;6331824;22;29377;-80
2022/01/30 15:43:10;;;;;;;;;5.25;4.50;;;;;;;;6301379;22;28430;-81